createdAt,value
2019-02-10T00:01:24.419Z,2.73
2019-02-10T00:03:53.488Z,2.50
2019-02-10T00:06:24.720Z,3.30
2019-02-10T00:08:53.229Z,2.40
2019-02-10T00:11:22.314Z,2.47
2019-02-10T00:13:51.258Z,2.73
2019-02-10T00:16:21.663Z,3.47
2019-02-10T00:18:50.920Z,3.07
2019-02-10T00:21:20.041Z,2.73
2019-02-10T00:23:50.340Z,2.97
2019-02-10T00:26:19.205Z,3.40
2019-02-10T00:28:50.289Z,3.03
2019-02-10T00:31:19.404Z,2.47
2019-02-10T00:33:48.566Z,2.60
2019-02-10T00:36:17.598Z,3.00
2019-02-10T00:38:46.654Z,2.50
2019-02-10T00:41:15.590Z,3.10
2019-02-10T00:43:44.668Z,2.83
2019-02-10T00:46:17.121Z,2.77
2019-02-10T00:48:46.161Z,3.33
2019-02-10T00:51:15.103Z,3.07
2019-02-10T00:53:44.160Z,3.30
2019-02-10T00:56:13.236Z,3.07
2019-02-10T00:58:42.106Z,2.87
2019-02-10T01:01:11.235Z,3.33
2019-02-10T01:03:40.415Z,2.63
2019-02-10T01:06:09.443Z,3.27
2019-02-10T01:08:38.618Z,2.43
2019-02-10T01:11:07.707Z,2.73
2019-02-10T01:13:36.709Z,3.30
2019-02-10T01:16:08.695Z,3.23
2019-02-10T01:18:37.651Z,3.17
2019-02-10T01:21:06.789Z,2.63
2019-02-10T01:23:35.879Z,3.43
2019-02-10T01:26:04.965Z,3.10
2019-02-10T01:28:33.995Z,2.77
2019-02-10T01:31:03.123Z,2.53
2019-02-10T01:33:32.215Z,2.90
2019-02-10T01:36:01.254Z,2.87
2019-02-10T01:38:30.240Z,3.30
2019-02-10T01:41:18.494Z,3.57
2019-02-10T01:43:47.665Z,2.47
2019-02-10T01:46:16.587Z,3.07
2019-02-10T01:48:45.605Z,3.00
2019-02-10T01:51:14.721Z,2.87
2019-02-10T01:53:43.793Z,3.57
2019-02-10T01:56:12.860Z,3.53
2019-02-10T01:58:41.938Z,2.93
2019-02-10T02:01:11.044Z,2.97
2019-02-10T02:03:40.093Z,3.07
2019-02-10T02:06:09.234Z,3.30
2019-02-10T02:08:38.342Z,2.77
2019-02-10T02:11:07.288Z,3.50
2019-02-10T02:13:36.549Z,2.80
2019-02-10T02:16:05.663Z,3.00
2019-02-10T02:18:34.662Z,3.83
2019-02-10T02:21:03.752Z,2.63
2019-02-10T02:23:32.869Z,3.17
2019-02-10T02:26:02.304Z,4.27
2019-02-10T02:28:31.308Z,3.53
2019-02-10T02:31:00.423Z,3.20
2019-02-10T02:33:29.501Z,3.10
2019-02-10T02:35:58.585Z,2.83
2019-02-10T02:38:27.903Z,4.40
2019-02-10T02:40:56.985Z,3.83
2019-02-10T02:43:26.213Z,3.23
2019-02-10T02:45:55.235Z,3.80
2019-02-10T02:48:24.258Z,3.17
2019-02-10T02:50:53.452Z,4.00
2019-02-10T02:53:22.543Z,3.33
2019-02-10T02:55:51.538Z,3.33
2019-02-10T02:58:20.586Z,3.07
2019-02-10T03:00:49.788Z,2.93
2019-02-10T03:03:18.880Z,5.07
2019-02-10T03:05:48.137Z,2.80
2019-02-10T03:08:17.135Z,3.77
2019-02-10T03:10:46.229Z,3.10
2019-02-10T03:13:15.280Z,3.33
2019-02-10T03:15:44.314Z,2.90
2019-02-10T03:18:13.407Z,3.73
2019-02-10T03:20:42.518Z,3.83
2019-02-10T03:23:11.406Z,3.47
2019-02-10T03:25:41.045Z,3.60
2019-02-10T03:28:10.102Z,3.20
2019-02-10T03:30:39.248Z,3.50
2019-02-10T03:33:08.280Z,3.23
2019-02-10T03:35:37.488Z,2.60
2019-02-10T03:38:06.631Z,2.67
2019-02-10T03:40:35.652Z,2.57
2019-02-10T03:43:04.614Z,2.47
2019-02-10T03:45:33.593Z,3.33
2019-02-10T03:48:02.690Z,2.57
2019-02-10T03:50:31.715Z,2.47
2019-02-10T03:53:00.732Z,3.17
2019-02-10T03:55:29.750Z,2.33
2019-02-10T03:57:58.712Z,2.30
2019-02-10T04:00:27.868Z,2.20
2019-02-10T04:02:57.065Z,3.10
2019-02-10T04:05:26.195Z,2.43
2019-02-10T04:07:55.210Z,2.70
2019-02-10T04:10:24.270Z,2.50
2019-02-10T04:12:53.395Z,2.40
2019-02-10T04:15:22.481Z,3.23
2019-02-10T04:17:51.577Z,3.13
2019-02-10T04:20:20.715Z,2.23
2019-02-10T04:22:49.786Z,2.73
2019-02-10T04:25:18.869Z,2.17
2019-02-10T04:27:47.937Z,2.73
2019-02-10T04:30:16.937Z,2.63
2019-02-10T04:32:46.040Z,3.03
2019-02-10T04:35:15.119Z,2.77
2019-02-10T04:37:46.333Z,2.60
2019-02-10T04:40:15.036Z,2.00
2019-02-10T04:42:44.068Z,2.10
2019-02-10T04:45:13.070Z,1.50
2019-02-10T04:47:42.347Z,1.97
2019-02-10T04:50:13.677Z,2.53
2019-02-10T04:52:42.770Z,2.43
2019-02-10T04:55:11.989Z,2.10
2019-02-10T04:57:41.197Z,2.23
2019-02-10T05:00:10.402Z,2.30
2019-02-10T05:02:39.542Z,2.17
2019-02-10T05:05:08.642Z,2.23
2019-02-10T05:07:37.833Z,2.27
2019-02-10T05:10:26.121Z,2.20
2019-02-10T05:12:55.233Z,2.50
2019-02-10T05:15:24.593Z,2.30
2019-02-10T05:17:53.615Z,2.37
2019-02-10T05:20:22.897Z,2.63
2019-02-10T05:22:51.997Z,2.87
2019-02-10T05:25:21.115Z,2.23
2019-02-10T05:27:50.283Z,2.43
2019-02-10T05:30:19.355Z,2.60
2019-02-10T05:32:48.436Z,2.07
2019-02-10T05:35:17.525Z,2.43
2019-02-10T05:37:46.636Z,2.20
2019-02-10T05:40:15.856Z,2.23
2019-02-10T05:42:44.850Z,2.40
2019-02-10T05:45:14.201Z,2.20
2019-02-10T05:47:43.275Z,1.87
2019-02-10T05:50:12.403Z,2.30
2019-02-10T05:52:41.629Z,2.53
2019-02-10T05:55:10.697Z,2.70
2019-02-10T05:57:39.879Z,2.43
2019-02-10T06:00:09.096Z,2.50
2019-02-10T06:02:38.360Z,2.30
2019-02-10T06:05:27.812Z,2.53
2019-02-10T06:07:57.008Z,2.23
2019-02-10T06:10:26.114Z,2.00
2019-02-10T06:12:55.345Z,2.30
2019-02-10T06:15:24.432Z,2.70
2019-02-10T06:17:53.498Z,2.57
2019-02-10T06:20:22.721Z,2.50
2019-02-10T06:22:51.758Z,2.73
2019-02-10T06:25:20.779Z,2.93
2019-02-10T06:27:49.918Z,2.37
2019-02-10T06:30:18.860Z,1.90
2019-02-10T06:32:47.951Z,2.30
2019-02-10T06:35:16.987Z,2.47
2019-02-10T06:37:46.023Z,2.67
2019-02-10T06:40:15.039Z,2.73
2019-02-10T06:42:44.105Z,2.33
2019-02-10T06:45:13.830Z,2.90
2019-02-10T06:47:43.423Z,2.47
2019-02-10T06:50:12.727Z,2.27
2019-02-10T06:52:41.632Z,2.43
2019-02-10T06:55:12.636Z,2.30
2019-02-10T06:57:41.843Z,2.53
2019-02-10T07:00:31.533Z,2.17
2019-02-10T07:03:46.847Z,2.30
2019-02-10T07:06:16.235Z,2.90
2019-02-10T07:08:45.225Z,2.70
2019-02-10T07:11:14.423Z,2.23
2019-02-10T07:13:45.957Z,2.77
2019-02-10T07:16:57.539Z,2.80
2019-02-10T07:20:16.462Z,2.30
2019-02-10T07:22:57.610Z,2.43
2019-02-10T07:26:01.747Z,2.10
2019-02-10T07:29:39.323Z,2.60
2019-02-10T07:32:19.280Z,2.27
2019-02-10T07:35:32.420Z,2.20
2019-02-10T07:38:41.801Z,2.10
2019-02-10T07:41:21.882Z,1.90
2019-02-10T07:44:15.970Z,2.13
2019-02-10T07:46:58.904Z,2.43
2019-02-10T07:49:57.506Z,2.67
2019-02-10T07:53:10.723Z,2.23
2019-02-10T07:56:21.102Z,2.30
2019-02-10T07:59:22.735Z,2.30
2019-02-10T08:02:44.948Z,2.43
2019-02-10T08:05:23.212Z,3.10
2019-02-10T08:08:36.527Z,2.43
2019-02-10T08:11:38.234Z,2.77
2019-02-10T08:14:59.099Z,2.30
2019-02-10T08:17:53.606Z,2.60
2019-02-10T08:21:02.361Z,2.43
2019-02-10T08:23:56.388Z,2.47
2019-02-10T08:27:02.238Z,2.80
2019-02-10T08:29:53.943Z,2.47
2019-02-10T08:33:03.577Z,2.53
2019-02-10T08:36:06.538Z,2.73
2019-02-10T08:38:59.886Z,2.37
2019-02-10T08:42:18.423Z,2.50
2019-02-10T08:45:22.190Z,2.77
2019-02-10T08:48:16.989Z,2.43
2019-02-10T08:51:42.257Z,2.43
2019-02-10T08:54:11.965Z,2.50
2019-02-10T08:56:41.172Z,2.80
2019-02-10T08:59:10.334Z,2.27
2019-02-10T09:01:39.572Z,2.47
2019-02-10T09:04:08.604Z,2.70
2019-02-10T09:06:56.985Z,2.63
2019-02-10T09:09:26.094Z,2.70
2019-02-10T09:11:55.167Z,2.07
2019-02-10T09:14:24.370Z,2.40
2019-02-10T09:16:53.458Z,2.30
2019-02-10T09:19:22.647Z,2.37
2019-02-10T09:21:51.818Z,2.37
2019-02-10T09:24:20.870Z,1.90
2019-02-10T09:26:50.085Z,2.17
2019-02-10T09:29:19.499Z,2.20
2019-02-10T09:31:48.652Z,2.07
2019-02-10T09:34:17.790Z,2.00
2019-02-10T09:36:47.060Z,2.27
2019-02-10T09:39:16.332Z,2.10
2019-02-10T09:41:45.480Z,2.17
2019-02-10T09:44:14.740Z,2.37
2019-02-10T09:46:43.832Z,2.20
2019-02-10T09:49:12.909Z,2.30
2019-02-10T09:51:42.097Z,2.10
2019-02-10T09:54:11.099Z,2.90
2019-02-10T09:56:40.226Z,2.97
2019-02-10T09:59:09.460Z,2.40
2019-02-10T10:01:38.543Z,2.53
2019-02-10T10:04:07.633Z,2.50
2019-02-10T10:06:36.725Z,2.47
2019-02-10T10:09:06.267Z,2.43
2019-02-10T10:11:35.387Z,1.90
2019-02-10T10:14:04.521Z,2.10
2019-02-10T10:16:33.458Z,2.27
2019-02-10T10:19:02.508Z,2.67
2019-02-10T10:21:31.637Z,2.77
2019-02-10T10:24:00.726Z,2.37
2019-02-10T10:26:29.745Z,2.50
2019-02-10T10:28:58.811Z,3.20
2019-02-10T10:31:28.021Z,3.23
2019-02-10T10:33:57.065Z,2.80
2019-02-10T10:36:26.202Z,3.40
2019-02-10T10:38:55.283Z,2.73
2019-02-10T10:41:24.498Z,3.10
2019-02-10T10:43:56.668Z,2.47
2019-02-10T10:46:25.834Z,2.60
2019-02-10T10:48:54.950Z,2.33
2019-02-10T10:51:24.242Z,1.60
2019-02-10T10:53:53.424Z,1.40
2019-02-10T10:56:22.580Z,1.40
2019-02-10T10:58:51.536Z,1.40
2019-02-10T11:01:25.399Z,1.20
2019-02-10T11:03:51.746Z,1.40
2019-02-10T11:06:20.893Z,1.20
2019-02-10T11:08:49.923Z,0.93
2019-02-10T11:11:18.952Z,1.10
2019-02-10T11:13:48.116Z,1.33
2019-02-10T11:16:17.249Z,1.10
2019-02-10T11:18:46.275Z,1.27
2019-02-10T11:21:15.329Z,1.23
2019-02-10T11:23:44.461Z,1.50
2019-02-10T11:26:13.818Z,1.60
2019-02-10T11:28:42.967Z,1.50
2019-02-10T11:31:12.074Z,1.70
2019-02-10T11:33:41.175Z,1.57
2019-02-10T11:36:10.298Z,1.53
2019-02-10T11:38:39.443Z,1.50
2019-02-10T11:41:08.453Z,1.80
2019-02-10T11:43:37.554Z,1.90
2019-02-10T11:46:06.603Z,1.60
2019-02-10T11:48:35.789Z,1.40
2019-02-10T11:51:04.897Z,1.40
2019-02-10T11:53:33.922Z,1.80
2019-02-10T11:56:02.932Z,2.13
2019-02-10T11:58:31.909Z,2.37
2019-02-10T12:01:00.974Z,2.10
2019-02-10T12:03:32.827Z,2.60
2019-02-10T12:06:01.818Z,2.60
2019-02-10T12:08:35.632Z,2.30
2019-02-10T12:11:01.798Z,3.03
2019-02-10T12:13:30.900Z,2.23
2019-02-10T12:15:59.924Z,1.70
2019-02-10T12:18:28.966Z,1.10
2019-02-10T12:21:06.666Z,1.23
2019-02-10T12:23:35.707Z,1.37
2019-02-10T12:26:04.856Z,1.13
2019-02-10T12:28:33.862Z,1.00
2019-02-10T12:31:02.954Z,1.10
2019-02-10T12:33:32.024Z,1.30
2019-02-10T12:36:01.116Z,1.20
2019-02-10T12:38:30.136Z,1.93
2019-02-10T12:41:18.470Z,1.97
2019-02-10T12:43:47.878Z,1.90
2019-02-10T12:46:16.936Z,1.60
2019-02-10T12:48:45.920Z,1.90
2019-02-10T12:51:15.056Z,1.67
2019-02-10T12:53:44.155Z,2.00
2019-02-10T12:56:13.165Z,1.80
2019-02-10T12:58:42.296Z,1.63
2019-02-10T13:01:11.297Z,1.70
2019-02-10T13:03:40.334Z,1.30
2019-02-10T13:06:09.409Z,1.10
2019-02-10T13:08:38.421Z,1.10
2019-02-10T13:11:07.611Z,1.10
2019-02-10T13:13:36.701Z,1.30
2019-02-10T13:16:05.851Z,1.00
2019-02-10T13:18:34.976Z,0.90
2019-02-10T13:21:03.962Z,0.97
2019-02-10T13:23:32.976Z,1.20
2019-02-10T13:26:02.075Z,1.00
2019-02-10T13:28:31.203Z,1.10
2019-02-10T13:31:00.340Z,1.27
2019-02-10T13:33:29.461Z,1.30
2019-02-10T13:35:58.728Z,1.20
2019-02-10T13:38:33.634Z,1.47
2019-02-10T13:41:02.608Z,1.63
2019-02-10T13:43:33.529Z,1.23
2019-02-10T13:46:02.476Z,1.20
2019-02-10T13:48:31.708Z,0.77
2019-02-10T13:51:00.845Z,0.80
2019-02-10T13:53:31.184Z,0.90
2019-02-10T13:56:00.374Z,0.80
2019-02-10T13:58:29.582Z,0.60
2019-02-10T14:00:58.646Z,0.50
2019-02-10T14:03:27.919Z,0.70
2019-02-10T14:05:57.118Z,0.77
2019-02-10T14:08:26.316Z,0.70
2019-02-10T14:10:55.508Z,0.90
2019-02-10T14:13:24.716Z,0.83
2019-02-10T14:15:53.679Z,1.30
2019-02-10T14:18:22.821Z,1.00
2019-02-10T14:20:52.053Z,1.10
2019-02-10T14:23:21.365Z,0.90
2019-02-10T14:25:52.101Z,0.80
2019-02-10T14:28:22.231Z,1.00
2019-02-10T14:30:51.405Z,1.00
2019-02-10T14:33:21.119Z,0.87
2019-02-10T14:35:50.215Z,0.80
2019-02-10T14:38:19.305Z,0.90
2019-02-10T14:40:48.505Z,1.30
2019-02-10T14:43:17.546Z,1.10
2019-02-10T14:45:46.729Z,1.17
2019-02-10T14:48:17.463Z,1.10
2019-02-10T14:50:46.540Z,1.60
2019-02-10T14:53:15.723Z,1.43
2019-02-10T14:55:46.365Z,1.47
2019-02-10T14:58:18.491Z,1.60
2019-02-10T15:00:47.630Z,1.77
2019-02-10T15:03:19.030Z,1.30
2019-02-10T15:05:50.648Z,1.43
2019-02-10T15:08:19.860Z,1.70
2019-02-10T15:10:50.034Z,2.23
2019-02-10T15:13:22.796Z,1.90
2019-02-10T15:16:00.396Z,1.80
2019-02-10T15:18:31.495Z,2.10
2019-02-10T15:21:00.603Z,1.90
2019-02-10T15:23:34.277Z,1.60
2019-02-10T15:26:09.902Z,1.00
2019-02-10T15:28:38.969Z,1.30
2019-02-10T15:31:08.083Z,1.40
2019-02-10T15:33:39.918Z,1.80
2019-02-10T15:36:10.328Z,1.47
2019-02-10T15:38:39.522Z,1.00
2019-02-10T15:41:08.613Z,0.60
2019-02-10T15:43:39.025Z,0.30
2019-02-10T15:46:10.959Z,0.40
2019-02-10T15:48:40.072Z,0.50
2019-02-10T15:51:09.278Z,0.70
2019-02-10T15:53:38.399Z,0.20
2019-02-10T15:56:10.519Z,0.20
2019-02-10T15:58:39.675Z,0.20
2019-02-10T16:01:08.861Z,0.10
2019-02-10T16:03:38.013Z,0.40
2019-02-10T16:06:07.189Z,0.40
2019-02-10T16:08:36.357Z,0.23
2019-02-10T16:11:05.403Z,0.17
2019-02-10T16:13:34.463Z,0.30
2019-02-10T16:16:04.589Z,0.40
2019-02-10T16:18:33.835Z,0.60
2019-02-10T16:21:03.047Z,0.43
2019-02-10T16:23:32.159Z,0.43
2019-02-10T16:26:01.197Z,0.47
2019-02-10T16:28:30.285Z,0.30
2019-02-10T16:30:59.305Z,0.40
2019-02-10T16:33:28.430Z,0.23
2019-02-10T16:35:57.478Z,0.40
2019-02-10T16:38:26.487Z,0.37
2019-02-10T16:40:55.436Z,0.50
2019-02-10T16:43:24.478Z,0.40
2019-02-10T16:45:53.614Z,0.57
2019-02-10T16:48:22.720Z,0.30
2019-02-10T16:50:51.832Z,0.40
2019-02-10T16:53:20.928Z,0.40
2019-02-10T16:55:50.032Z,0.60
2019-02-10T16:58:19.082Z,0.70
2019-02-10T17:00:48.136Z,0.60
2019-02-10T17:03:17.217Z,0.60
2019-02-10T17:05:46.334Z,0.87
2019-02-10T17:08:15.418Z,0.50
2019-02-10T17:10:44.514Z,0.67
2019-02-10T17:13:13.597Z,1.80
2019-02-10T17:15:42.648Z,0.90
2019-02-10T17:18:14.985Z,0.90
2019-02-10T17:20:44.185Z,0.80
2019-02-10T17:23:13.211Z,0.90
2019-02-10T17:25:42.144Z,0.97
2019-02-10T17:28:11.313Z,0.90
2019-02-10T17:30:40.351Z,1.10
2019-02-10T17:33:09.475Z,1.37
2019-02-10T17:35:38.613Z,1.23
2019-02-10T17:38:07.721Z,1.23
2019-02-10T17:40:40.361Z,1.20
2019-02-10T17:43:09.524Z,1.33
2019-02-10T17:45:38.687Z,1.60
2019-02-10T17:48:07.795Z,2.30
2019-02-10T17:50:36.957Z,2.43
2019-02-10T17:53:06.165Z,2.70
2019-02-10T17:55:35.368Z,3.30
2019-02-10T17:58:04.725Z,2.60
2019-02-10T18:00:38.631Z,2.40
2019-02-10T18:03:07.835Z,2.87
2019-02-10T18:05:39.239Z,3.23
2019-02-10T18:08:08.520Z,2.97
2019-02-10T18:10:37.811Z,2.80
2019-02-10T18:13:07.056Z,3.70
2019-02-10T18:15:54.182Z,4.37
2019-02-10T18:18:50.993Z,4.20
2019-02-10T18:21:37.654Z,4.63
2019-02-10T18:24:19.630Z,3.93
2019-02-10T18:27:16.954Z,4.67
2019-02-10T18:30:05.127Z,4.10
2019-02-10T18:32:52.199Z,4.40
2019-02-10T18:35:34.040Z,3.07
2019-02-10T18:38:22.139Z,2.33
2019-02-10T18:41:06.901Z,1.20
2019-02-10T18:44:10.481Z,0.60
2019-02-10T18:46:48.927Z,0.50
2019-02-10T18:49:39.849Z,0.63
2019-02-10T18:52:30.731Z,2.67
2019-02-10T18:55:15.261Z,0.40
2019-02-10T18:58:21.805Z,2.00
2019-02-10T19:00:59.721Z,0.90
2019-02-10T19:03:53.767Z,2.07
2019-02-10T19:06:41.875Z,1.73
2019-02-10T19:09:45.244Z,1.57
2019-02-10T19:12:20.262Z,1.50
2019-02-10T19:15:14.645Z,1.77
2019-02-10T19:18:02.477Z,2.50
2019-02-10T19:21:16.069Z,1.67
2019-02-10T19:24:07.255Z,1.80
2019-02-10T19:26:48.905Z,2.10
2019-02-10T19:29:42.903Z,2.77
2019-02-10T19:32:49.499Z,2.27
2019-02-10T19:35:43.457Z,2.67
2019-02-10T19:38:29.407Z,1.20
2019-02-10T19:41:10.829Z,0.83
2019-02-10T19:44:04.784Z,0.83
2019-02-10T19:46:44.981Z,0.83
2019-02-10T19:49:37.698Z,0.43
2019-02-10T19:52:24.655Z,0.40
2019-02-10T19:55:01.894Z,0.60
2019-02-10T19:57:56.416Z,0.50
2019-02-10T20:00:50.527Z,0.30
2019-02-10T20:03:47.850Z,0.50
2019-02-10T20:06:34.977Z,0.43
2019-02-10T20:09:19.720Z,0.60
2019-02-10T20:12:09.784Z,0.30
2019-02-10T20:14:56.822Z,0.67
2019-02-10T20:17:50.690Z,0.60
2019-02-10T20:20:38.723Z,0.80
2019-02-10T20:23:23.487Z,1.10
2019-02-10T20:26:14.439Z,0.97
2019-02-10T20:28:55.868Z,1.43
2019-02-10T20:31:41.811Z,1.30
2019-02-10T20:34:35.947Z,0.73
2019-02-10T20:40:15.204Z,0.80
2019-02-10T20:43:18.703Z,0.60
2019-02-10T20:46:07.022Z,0.60
2019-02-10T20:48:53.872Z,0.67
2019-02-10T20:51:34.273Z,0.70
2019-02-10T20:54:10.180Z,0.90
2019-02-10T20:56:53.551Z,0.60
2019-02-10T20:59:37.579Z,0.50
2019-02-10T21:02:23.783Z,0.50
2019-02-10T21:05:05.633Z,0.47
2019-02-10T21:07:48.910Z,0.80
2019-02-10T21:10:31.800Z,0.83
2019-02-10T21:13:19.903Z,0.80
2019-02-10T21:16:06.796Z,0.53
2019-02-10T21:18:44.880Z,0.70
2019-02-10T21:21:31.570Z,0.60
2019-02-10T21:24:19.615Z,0.60
2019-02-10T21:26:56.112Z,0.90
2019-02-10T21:29:47.100Z,0.73
2019-02-10T21:32:33.680Z,1.13
2019-02-10T21:35:20.680Z,1.47
2019-02-10T21:38:02.270Z,1.37
2019-02-10T21:40:54.534Z,1.30
2019-02-10T21:43:48.383Z,1.57
2019-02-10T21:46:36.476Z,1.03
2019-02-10T21:49:10.865Z,1.37
2019-02-10T21:51:39.803Z,1.20
2019-02-10T21:54:08.935Z,1.20
2019-02-10T21:56:37.935Z,1.47
2019-02-10T21:59:06.946Z,1.30
2019-02-10T22:01:36.023Z,1.03
2019-02-10T22:04:04.938Z,1.60
2019-02-10T22:06:33.939Z,1.83
2019-02-10T22:09:04.151Z,1.40
2019-02-10T22:11:33.403Z,1.20
2019-02-10T22:14:02.433Z,1.23
2019-02-10T22:16:31.469Z,1.90
2019-02-10T22:19:00.393Z,1.73
2019-02-10T22:21:29.428Z,1.37
2019-02-10T22:23:58.509Z,2.03
2019-02-10T22:26:27.585Z,1.70
2019-02-10T22:28:56.645Z,1.43
2019-02-10T22:31:25.683Z,1.70
2019-02-10T22:33:54.693Z,1.10
2019-02-10T22:36:23.706Z,1.70
2019-02-10T22:38:52.828Z,1.90
2019-02-10T22:41:24.886Z,1.47
2019-02-10T22:43:54.250Z,1.23
2019-02-10T22:46:23.316Z,1.57
2019-02-10T22:48:52.244Z,1.50
2019-02-10T22:51:21.411Z,1.30
2019-02-10T22:53:50.522Z,1.60
2019-02-10T22:56:19.462Z,1.23
2019-02-10T22:58:48.496Z,1.30
2019-02-10T23:01:17.683Z,1.27
2019-02-10T23:03:46.743Z,1.40
2019-02-10T23:06:15.837Z,1.37
2019-02-10T23:08:44.804Z,1.50
2019-02-10T23:11:13.844Z,1.43
2019-02-10T23:13:43.019Z,1.80
2019-02-10T23:16:12.084Z,1.73
2019-02-10T23:18:41.090Z,2.30
2019-02-10T23:21:10.079Z,2.13
2019-02-10T23:23:39.022Z,1.97
2019-02-10T23:26:07.975Z,2.57
2019-02-10T23:28:37.113Z,1.90
2019-02-10T23:31:06.244Z,1.67
2019-02-10T23:33:35.185Z,2.80
2019-02-10T23:36:04.205Z,1.90
2019-02-10T23:38:33.255Z,1.70
2019-02-10T23:41:02.353Z,2.10
2019-02-10T23:43:31.609Z,1.80
2019-02-10T23:46:00.673Z,2.20
2019-02-10T23:48:29.777Z,1.87
2019-02-10T23:50:58.773Z,1.60
2019-02-10T23:53:27.839Z,1.77
2019-02-10T23:55:56.800Z,1.80
2019-02-10T23:58:25.805Z,1.60
